Time;durP1;ratioP1;P1;durP2;ratioP2;P2;SDS_P1;SDS_P2;PMS_P1;PMS_P2;Temp;Humidity;BMP_temperature;BMP_pressure;BME280_temperature;BME280_humidity;BME280_pressure;Samples;Min_cycle;Max_cycle;Signal;HPM_P1;HPM_P2
2024/02/14 00:00:53;;;;;;;7.05;3.70;;;8.60;99.90;;;;;;4988501;28;20025;-80
2024/02/14 00:03:21;;;;;;;5.72;3.38;;;8.60;99.90;;;;;;4989003;28;20076;-79
2024/02/14 00:05:46;;;;;;;5.75;3.75;;;8.60;99.90;;;;;;4971310;28;20022;-78
2024/02/14 00:08:14;;;;;;;8.35;3.92;;;8.60;99.90;;;;;;4988934;28;20036;-78
2024/02/14 00:10:40;;;;;;;5.95;3.78;;;8.70;99.90;;;;;;4988219;28;20498;-79
2024/02/14 00:13:06;;;;;;;5.65;3.75;;;8.70;99.90;;;;;;4988551;28;20038;-78
2024/02/14 00:15:31;;;;;;;5.82;3.90;;;8.70;99.90;;;;;;4988589;28;20168;-79
2024/02/14 00:17:57;;;;;;;7.85;4.43;;;8.70;99.90;;;;;;4988489;28;20713;-80
2024/02/14 00:20:24;;;;;;;7.78;3.90;;;8.70;99.90;;;;;;4988383;28;20052;-79
2024/02/14 00:22:50;;;;;;;8.00;3.60;;;8.70;99.90;;;;;;4988438;28;20027;-79
2024/02/14 00:25:15;;;;;;;6.53;4.07;;;8.70;99.90;;;;;;4986943;28;20073;-79
2024/02/14 00:27:42;;;;;;;7.25;3.97;;;8.70;99.90;;;;;;4988203;28;20021;-78
2024/02/14 00:30:08;;;;;;;6.28;3.38;;;8.70;99.90;;;;;;4987618;28;20125;-79
2024/02/14 00:32:33;;;;;;;6.93;4.18;;;8.80;99.90;;;;;;4970609;28;20038;-80
2024/02/14 00:34:59;;;;;;;7.57;4.07;;;8.80;99.90;;;;;;4987724;28;20065;-81
2024/02/14 00:37:25;;;;;;;9.82;4.25;;;8.80;99.90;;;;;;4988359;28;20049;-81
2024/02/14 00:39:51;;;;;;;7.53;4.18;;;8.80;99.90;;;;;;4988072;28;20038;-82
2024/02/14 00:42:17;;;;;;;8.55;4.13;;;8.80;99.90;;;;;;4974006;28;20523;-82
2024/02/14 00:44:43;;;;;;;6.47;4.00;;;8.80;99.90;;;;;;4988304;28;20022;-80
2024/02/14 00:47:08;;;;;;;5.45;4.20;;;8.80;99.90;;;;;;4987835;28;20026;-81
2024/02/14 00:49:37;;;;;;;8.63;3.95;;;8.80;99.90;;;;;;4988145;28;20121;-81
2024/02/14 00:52:03;;;;;;;8.77;4.47;;;8.80;99.90;;;;;;4987098;28;20408;-80
2024/02/14 00:54:28;;;;;;;7.40;4.85;;;8.90;99.90;;;;;;4970592;28;20030;-80
2024/02/14 00:56:54;;;;;;;8.05;5.45;;;8.80;99.90;;;;;;4987277;28;20031;-80
2024/02/14 00:59:20;;;;;;;6.65;4.55;;;8.90;99.90;;;;;;4988290;28;20028;-80
2024/02/14 01:01:45;;;;;;;6.45;4.20;;;8.90;99.90;;;;;;4987060;28;20270;-79
2024/02/14 01:04:11;;;;;;;7.43;4.97;;;8.90;99.90;;;;;;4970245;28;20053;-81
2024/02/14 01:06:37;;;;;;;6.55;3.95;;;8.90;99.90;;;;;;4987617;28;20026;-80
2024/02/14 01:09:03;;;;;;;8.63;5.15;;;8.90;99.90;;;;;;4987270;28;20428;-80
2024/02/14 01:11:29;;;;;;;6.22;4.70;;;8.90;99.90;;;;;;4969690;28;20886;-80
2024/02/14 01:13:54;;;;;;;8.30;4.35;;;9.00;99.90;;;;;;4987451;28;20113;-80
2024/02/14 01:16:20;;;;;;;11.13;5.13;;;9.00;99.90;;;;;;4987484;28;20022;-79
2024/02/14 01:18:45;;;;;;;7.00;4.55;;;9.00;99.90;;;;;;4970012;28;20026;-80
2024/02/14 01:21:12;;;;;;;7.50;4.70;;;9.00;99.90;;;;;;4986740;28;20046;-80
2024/02/14 01:23:38;;;;;;;7.65;5.40;;;9.10;99.90;;;;;;4987816;28;20388;-79
2024/02/14 01:26:03;;;;;;;9.20;5.10;;;9.10;99.90;;;;;;4969410;28;20030;-79
2024/02/14 01:28:29;;;;;;;10.55;5.15;;;9.10;99.90;;;;;;4987494;28;20097;-79
2024/02/14 01:30:56;;;;;;;9.77;5.40;;;9.10;99.90;;;;;;4986676;28;20791;-80
2024/02/14 01:33:22;;;;;;;7.97;4.85;;;9.10;99.90;;;;;;4987421;28;20516;-80
2024/02/14 01:35:48;;;;;;;8.23;4.75;;;9.20;99.90;;;;;;4986612;28;20074;-80
2024/02/14 01:38:14;;;;;;;7.53;5.25;;;9.20;99.90;;;;;;4987105;28;20023;-79
2024/02/14 01:40:43;;;;;;;8.00;5.40;;;9.20;99.90;;;;;;4969006;28;20030;-80
2024/02/14 01:43:10;;;;;;;7.00;4.43;;;9.20;99.90;;;;;;4987139;28;20018;-80
2024/02/14 01:45:36;;;;;;;8.43;5.00;;;9.20;99.90;;;;;;4969147;28;20045;-80
2024/02/14 01:48:03;;;;;;;9.23;5.25;;;9.30;99.90;;;;;;4986738;28;20049;-80
2024/02/14 01:50:29;;;;;;;10.35;4.85;;;9.30;99.90;;;;;;4969080;28;20054;-81
2024/02/14 01:52:59;;;;;;;8.25;4.47;;;9.30;99.90;;;;;;4969066;28;20512;-80
2024/02/14 01:55:26;;;;;;;8.82;5.00;;;9.40;99.90;;;;;;4986706;28;20069;-78
2024/02/14 01:57:52;;;;;;;8.25;5.03;;;9.40;99.90;;;;;;4987192;28;20036;-79
2024/02/14 02:00:19;;;;;;;7.85;5.47;;;9.40;99.90;;;;;;4969317;28;20026;-80
2024/02/14 02:02:46;;;;;;;10.35;4.80;;;9.50;99.90;;;;;;4986797;28;20026;-80
2024/02/14 02:05:13;;;;;;;10.80;5.65;;;9.50;99.90;;;;;;4987100;28;20037;-79
2024/02/14 02:07:42;;;;;;;7.82;4.68;;;9.50;99.90;;;;;;4986515;28;20023;-79
2024/02/14 02:10:12;;;;;;;7.57;5.47;;;9.50;99.90;;;;;;4986682;28;20026;-80
2024/02/14 02:12:41;;;;;;;8.20;5.03;;;9.50;99.90;;;;;;4986612;28;20022;-87
2024/02/14 02:15:10;;;;;;;7.47;4.90;;;9.60;99.90;;;;;;4986818;28;20033;-81
2024/02/14 02:17:36;;;;;;;9.88;5.05;;;9.60;99.90;;;;;;4986340;28;20026;-80
2024/02/14 02:20:02;;;;;;;8.18;4.90;;;9.60;99.90;;;;;;4986201;28;20444;-80
2024/02/14 02:22:35;;;;;;;12.15;5.88;;;9.60;99.90;;;;;;4986224;28;20066;-80
2024/02/14 02:25:07;;;;;;;12.00;5.35;;;9.60;99.90;;;;;;4986381;28;20018;-80
2024/02/14 02:27:35;;;;;;;10.52;5.45;;;9.60;99.90;;;;;;4986073;28;20403;-80
2024/02/14 02:30:01;;;;;;;8.38;5.10;;;9.70;99.90;;;;;;4968613;28;20028;-80
2024/02/14 02:32:26;;;;;;;12.70;5.45;;;9.60;99.90;;;;;;4968340;28;20033;-80
2024/02/14 02:34:53;;;;;;;7.80;5.10;;;9.60;99.90;;;;;;4986022;28;20022;-80
2024/02/14 02:37:19;;;;;;;8.65;5.43;;;9.70;99.90;;;;;;4986027;28;20031;-80
2024/02/14 02:39:44;;;;;;;9.52;5.90;;;9.70;99.90;;;;;;4986085;28;20523;-79
2024/02/14 02:42:10;;;;;;;10.43;6.05;;;9.60;99.90;;;;;;4968214;28;20069;-79
2024/02/14 02:44:39;;;;;;;8.23;5.35;;;9.70;99.90;;;;;;4986704;28;20026;-80
2024/02/14 02:47:04;;;;;;;10.68;5.97;;;9.70;99.90;;;;;;4985916;28;20105;-79
2024/02/14 02:49:30;;;;;;;10.98;5.63;;;9.70;99.90;;;;;;4972932;28;20019;-81
2024/02/14 02:51:56;;;;;;;9.45;5.45;;;9.70;99.90;;;;;;4989684;28;20034;-80
2024/02/14 02:54:23;;;;;;;8.38;6.05;;;9.70;99.90;;;;;;4990290;28;20026;-80
2024/02/14 02:56:49;;;;;;;11.50;6.35;;;9.60;99.90;;;;;;4989931;28;20733;-81
2024/02/14 02:59:16;;;;;;;10.75;6.50;;;9.70;99.90;;;;;;4990080;28;20025;-80
2024/02/14 03:01:42;;;;;;;11.63;6.88;;;9.70;99.90;;;;;;4972198;28;20058;-81
2024/02/14 03:04:08;;;;;;;10.82;6.47;;;9.70;99.90;;;;;;4990238;28;20042;-81
2024/02/14 03:06:33;;;;;;;9.52;6.50;;;9.70;99.90;;;;;;4989628;28;20356;-81
2024/02/14 03:08:59;;;;;;;12.75;7.10;;;9.70;99.90;;;;;;4972232;28;20466;-81
2024/02/14 03:11:26;;;;;;;9.95;6.40;;;9.70;99.90;;;;;;4989701;28;20026;-81
2024/02/14 03:13:52;;;;;;;10.02;6.35;;;9.70;99.90;;;;;;4989573;28;20455;-81
2024/02/14 03:16:17;;;;;;;10.23;6.65;;;9.70;99.90;;;;;;4989205;28;20073;-81
2024/02/14 03:18:44;;;;;;;10.57;6.65;;;9.70;99.90;;;;;;4989601;28;20022;-81
2024/02/14 03:21:09;;;;;;;11.48;7.18;;;9.70;99.90;;;;;;4989097;28;20069;-80
2024/02/14 03:23:35;;;;;;;10.75;6.45;;;9.70;99.90;;;;;;4989687;28;20496;-81
2024/02/14 03:26:01;;;;;;;10.95;6.68;;;9.70;99.90;;;;;;4989114;28;20050;-81
2024/02/14 03:28:27;;;;;;;10.63;7.05;;;9.70;99.90;;;;;;4989891;28;20038;-81
2024/02/14 03:30:53;;;;;;;9.52;7.30;;;9.70;99.90;;;;;;4989036;28;20034;-80
2024/02/14 03:33:18;;;;;;;13.20;7.15;;;9.70;99.90;;;;;;4989287;28;20034;-79
2024/02/14 03:35:45;;;;;;;10.60;7.25;;;9.70;99.90;;;;;;4988889;28;20027;-80
2024/02/14 03:38:10;;;;;;;11.73;6.80;;;9.70;99.90;;;;;;4989482;28;20084;-80
2024/02/14 03:40:38;;;;;;;10.80;7.03;;;9.70;99.90;;;;;;4989023;28;20113;-80
2024/02/14 03:43:04;;;;;;;11.85;7.03;;;9.80;99.90;;;;;;4989223;28;20411;-81
2024/02/14 03:45:29;;;;;;;11.13;7.57;;;9.80;99.90;;;;;;4989384;28;20157;-81
2024/02/14 03:47:56;;;;;;;11.10;7.45;;;9.80;99.90;;;;;;4988785;28;20093;-81
2024/02/14 03:50:22;;;;;;;13.18;7.97;;;9.80;99.90;;;;;;4971600;28;20156;-82
2024/02/14 03:52:48;;;;;;;13.95;8.13;;;9.90;99.90;;;;;;4988687;28;20037;-80
2024/02/14 03:55:17;;;;;;;15.73;8.80;;;9.90;99.90;;;;;;4971466;28;20049;-81
2024/02/14 03:57:45;;;;;;;12.00;7.65;;;9.90;99.90;;;;;;4971297;28;20023;-81
2024/02/14 04:00:11;;;;;;;16.95;9.27;;;9.90;99.90;;;;;;4989049;28;20038;-81
2024/02/14 04:02:37;;;;;;;12.85;8.63;;;10.00;99.90;;;;;;4988246;28;20488;-80
2024/02/14 04:05:03;;;;;;;12.82;8.68;;;10.00;99.90;;;;;;4988967;28;20493;-81
2024/02/14 04:07:29;;;;;;;14.18;8.38;;;10.00;99.90;;;;;;4988190;28;20022;-81
2024/02/14 04:09:55;;;;;;;13.73;8.30;;;10.00;99.90;;;;;;4989397;28;20050;-80
2024/02/14 04:12:21;;;;;;;11.85;8.10;;;10.00;99.90;;;;;;4988561;28;20285;-80
2024/02/14 04:14:46;;;;;;;14.05;8.77;;;10.10;99.90;;;;;;4989282;28;20049;-80
2024/02/14 04:17:13;;;;;;;16.48;7.90;;;10.10;99.90;;;;;;4988381;28;20085;-80
2024/02/14 04:19:39;;;;;;;12.13;8.50;;;10.10;99.90;;;;;;4970826;28;20026;-80
2024/02/14 04:22:05;;;;;;;16.90;8.40;;;10.10;99.90;;;;;;4970417;28;20056;-80
2024/02/14 04:24:34;;;;;;;14.07;9.02;;;10.10;99.90;;;;;;4988795;28;20015;-80
2024/02/14 04:27:01;;;;;;;12.13;8.40;;;10.10;99.90;;;;;;4987883;28;20121;-80
2024/02/14 04:29:28;;;;;;;12.98;8.40;;;10.10;99.90;;;;;;4988707;28;20026;-80
2024/02/14 04:31:54;;;;;;;15.00;8.80;;;10.10;99.90;;;;;;4987359;28;20496;-80
2024/02/14 04:34:19;;;;;;;14.93;8.27;;;10.20;99.90;;;;;;4988549;28;20045;-80
2024/02/14 04:36:45;;;;;;;14.43;9.40;;;10.20;99.90;;;;;;4988061;28;20481;-81
2024/02/14 04:39:10;;;;;;;20.23;10.48;;;10.20;99.90;;;;;;4988740;28;20030;-80
2024/02/14 04:41:37;;;;;;;14.77;9.55;;;10.20;99.90;;;;;;4987824;28;20456;-80
2024/02/14 04:44:06;;;;;;;17.83;9.13;;;10.20;99.90;;;;;;4988254;28;20129;-79
2024/02/14 04:46:32;;;;;;;23.42;10.45;;;10.20;99.90;;;;;;4988156;28;20031;-80
2024/02/14 04:48:58;;;;;;;16.60;9.35;;;10.20;99.90;;;;;;4988179;28;20019;-81
2024/02/14 04:51:23;;;;;;;13.82;9.55;;;10.20;99.90;;;;;;4987980;28;20395;-80
2024/02/14 04:53:49;;;;;;;17.50;9.68;;;10.20;99.90;;;;;;4970365;28;20484;-80
2024/02/14 04:56:15;;;;;;;18.92;9.88;;;10.20;99.90;;;;;;4987912;28;20049;-80
2024/02/14 04:58:40;;;;;;;21.33;11.35;;;10.20;99.90;;;;;;4987757;28;20077;-81
2024/02/14 05:01:07;;;;;;;17.50;9.63;;;10.20;99.90;;;;;;4987682;28;20073;-80
2024/02/14 05:03:32;;;;;;;18.23;10.27;;;10.20;99.90;;;;;;4987896;28;20035;-81
2024/02/14 05:05:58;;;;;;;15.23;9.65;;;10.20;99.90;;;;;;4969673;28;20683;-80
2024/02/14 05:08:24;;;;;;;14.38;10.15;;;10.20;99.90;;;;;;4988159;28;20030;-81
2024/02/14 05:10:50;;;;;;;16.33;9.70;;;10.20;99.90;;;;;;4986884;28;20022;-81
2024/02/14 05:13:15;;;;;;;15.77;9.68;;;10.30;99.90;;;;;;4987733;28;20101;-80
2024/02/14 05:15:42;;;;;;;15.65;9.85;;;10.30;99.90;;;;;;4987043;28;20048;-80
2024/02/14 05:18:08;;;;;;;18.58;10.23;;;10.30;99.90;;;;;;4986972;28;20046;-80
2024/02/14 05:20:33;;;;;;;16.88;10.35;;;10.30;99.90;;;;;;4987123;28;20050;-80
2024/02/14 05:22:59;;;;;;;14.75;10.43;;;10.30;99.90;;;;;;4986877;28;20027;-80
2024/02/14 05:25:24;;;;;;;19.23;11.18;;;10.30;99.90;;;;;;4987473;28;20026;-80
2024/02/14 05:27:50;;;;;;;15.00;10.15;;;10.30;99.90;;;;;;4986820;28;20078;-80
2024/02/14 05:30:16;;;;;;;17.92;9.65;;;10.30;99.90;;;;;;4987333;28;20436;-80
2024/02/14 05:32:42;;;;;;;18.08;11.00;;;10.30;99.90;;;;;;4969695;28;20030;-80
2024/02/14 05:35:09;;;;;;;19.33;10.48;;;10.30;99.90;;;;;;4970183;28;20019;-80
2024/02/14 05:37:36;;;;;;;16.92;10.05;;;10.30;99.90;;;;;;4987208;28;20037;-80
2024/02/14 05:40:02;;;;;;;15.82;10.13;;;10.30;99.90;;;;;;4970026;28;20376;-80
2024/02/14 05:42:28;;;;;;;16.52;10.27;;;10.30;99.90;;;;;;4986724;28;20026;-80
2024/02/14 05:44:54;;;;;;;17.52;10.95;;;10.30;99.90;;;;;;4987199;28;20022;-79
2024/02/14 05:47:19;;;;;;;20.85;10.48;;;10.30;99.90;;;;;;4986575;28;20531;-80
2024/02/14 05:49:45;;;;;;;17.95;10.43;;;10.30;99.90;;;;;;4987054;28;20030;-81
2024/02/14 05:52:11;;;;;;;13.82;10.05;;;10.40;99.90;;;;;;4986733;28;20502;-81
2024/02/14 05:54:37;;;;;;;14.32;10.02;;;10.40;99.90;;;;;;4979330;28;20054;-81
2024/02/14 05:57:02;;;;;;;14.50;10.30;;;10.40;99.90;;;;;;4968626;28;20034;-81
2024/02/14 05:59:28;;;;;;;16.02;9.35;;;10.40;99.90;;;;;;4969261;28;20023;-80
2024/02/14 06:01:54;;;;;;;13.88;9.48;;;10.40;99.90;;;;;;4986008;28;20072;-80
2024/02/14 06:04:19;;;;;;;14.02;10.52;;;10.40;99.90;;;;;;4987109;28;20403;-81
2024/02/14 06:06:45;;;;;;;14.93;10.45;;;10.40;99.90;;;;;;4986063;28;20480;-80
2024/02/14 06:09:11;;;;;;;17.05;10.30;;;10.40;99.90;;;;;;4969270;28;20018;-80
2024/02/14 06:11:40;;;;;;;14.15;9.93;;;10.40;99.90;;;;;;4986272;28;20762;-80
2024/02/14 06:14:07;;;;;;;17.60;10.93;;;10.40;99.90;;;;;;4986585;28;20101;-80
2024/02/14 06:16:33;;;;;;;14.18;10.07;;;10.40;99.90;;;;;;4969022;28;20022;-80
2024/02/14 06:18:59;;;;;;;16.55;10.32;;;10.40;99.90;;;;;;4969289;28;20498;-80
2024/02/14 06:21:25;;;;;;;14.88;10.68;;;10.40;99.90;;;;;;4986086;28;20522;-80
2024/02/14 06:23:51;;;;;;;16.98;10.48;;;10.40;99.90;;;;;;4968396;28;20484;-80
2024/02/14 06:26:17;;;;;;;19.52;10.60;;;10.40;99.90;;;;;;4985982;28;20105;-80
2024/02/14 06:28:43;;;;;;;15.15;10.60;;;10.40;99.90;;;;;;4969037;28;20377;-80
2024/02/14 06:31:09;;;;;;;19.17;11.43;;;10.40;99.90;;;;;;4968764;28;20536;-80
2024/02/14 06:33:36;;;;;;;18.20;11.10;;;10.40;99.90;;;;;;4986376;28;20030;-80
2024/02/14 06:36:01;;;;;;;16.40;11.02;;;10.40;99.90;;;;;;4986542;28;20454;-80
2024/02/14 06:38:27;;;;;;;16.15;11.05;;;10.40;99.90;;;;;;4986333;28;20030;-80
2024/02/14 06:40:53;;;;;;;17.13;10.50;;;10.40;99.90;;;;;;4986558;28;20113;-80
2024/02/14 06:43:19;;;;;;;21.40;11.55;;;10.40;99.90;;;;;;4986018;28;20516;-80
2024/02/14 06:45:45;;;;;;;17.60;11.30;;;10.40;99.90;;;;;;4969019;28;20023;-80
2024/02/14 06:48:10;;;;;;;16.20;10.65;;;10.40;99.90;;;;;;4985949;28;20029;-81
2024/02/14 06:50:36;;;;;;;14.77;10.02;;;10.40;99.90;;;;;;4986431;28;20096;-81
2024/02/14 06:53:02;;;;;;;17.85;11.15;;;10.50;99.90;;;;;;4985723;28;20053;-81
2024/02/14 06:55:30;;;;;;;16.98;10.90;;;10.50;99.90;;;;;;4985493;28;20064;-80
2024/02/14 06:57:56;;;;;;;19.10;10.70;;;10.50;99.90;;;;;;4985655;28;20447;-80
2024/02/14 07:00:22;;;;;;;16.80;11.23;;;10.50;99.90;;;;;;4968875;28;20033;-80
2024/02/14 07:02:48;;;;;;;20.23;11.95;;;10.50;99.90;;;;;;4968392;28;20026;-80
2024/02/14 07:05:14;;;;;;;16.42;10.65;;;10.50;99.90;;;;;;4986664;28;20121;-81
2024/02/14 07:07:40;;;;;;;14.65;9.60;;;10.50;99.90;;;;;;4985883;28;20030;-81
2024/02/14 07:10:07;;;;;;;17.40;11.13;;;10.50;99.90;;;;;;4968534;28;20023;-81
2024/02/14 07:12:33;;;;;;;17.17;11.32;;;10.50;99.90;;;;;;4986239;28;20081;-81
2024/02/14 07:14:58;;;;;;;16.85;10.82;;;10.50;99.90;;;;;;4986224;28;20406;-82
2024/02/14 07:17:24;;;;;;;17.17;10.52;;;10.50;99.90;;;;;;4986045;28;20033;-81
2024/02/14 07:19:50;;;;;;;17.20;11.45;;;10.50;99.90;;;;;;4967576;28;20925;-81
2024/02/14 07:22:18;;;;;;;17.42;11.57;;;10.50;99.90;;;;;;4983524;28;20030;-81
2024/02/14 07:24:45;;;;;;;20.20;12.50;;;10.60;99.90;;;;;;4986249;28;20096;-81
2024/02/14 07:27:12;;;;;;;17.00;11.13;;;10.60;99.90;;;;;;4985564;28;20105;-80
2024/02/14 07:29:38;;;;;;;18.05;11.75;;;10.60;99.90;;;;;;4986372;28;20033;-81
2024/02/14 07:32:04;;;;;;;17.80;11.68;;;10.60;99.90;;;;;;4985219;28;20018;-80
2024/02/14 07:34:29;;;;;;;19.83;11.27;;;10.60;99.90;;;;;;4982932;28;20412;-80
2024/02/14 07:36:55;;;;;;;21.92;12.23;;;10.60;99.90;;;;;;4965945;28;20026;-80
2024/02/14 07:39:20;;;;;;;18.42;11.85;;;10.60;99.90;;;;;;4968916;28;20069;-80
2024/02/14 07:41:46;;;;;;;17.27;12.02;;;10.60;99.90;;;;;;4970618;28;20026;-80
2024/02/14 07:44:13;;;;;;;24.77;12.77;;;10.70;99.90;;;;;;4989217;28;20088;-80
2024/02/14 07:46:38;;;;;;;21.75;12.50;;;10.60;99.90;;;;;;4971265;28;20105;-80
2024/02/14 07:49:04;;;;;;;22.48;13.30;;;10.70;99.90;;;;;;4989062;28;20113;-80
2024/02/14 07:51:36;;;;;;;15.75;11.10;;;10.70;99.90;;;;;;4988819;28;20018;-80
2024/02/14 07:54:05;;;;;;;18.10;12.13;;;10.70;99.90;;;;;;4988650;28;20419;-80
2024/02/14 07:56:31;;;;;;;20.65;13.25;;;10.70;99.90;;;;;;4988438;28;20018;-81
2024/02/14 07:58:57;;;;;;;20.25;13.00;;;10.70;99.90;;;;;;4981766;28;20022;-81
2024/02/14 08:01:23;;;;;;;19.63;12.90;;;10.70;99.90;;;;;;4987386;28;20134;-81
2024/02/14 08:03:48;;;;;;;22.40;13.68;;;10.80;99.90;;;;;;4988624;28;20113;-81
2024/02/14 08:06:14;;;;;;;19.60;12.77;;;10.70;99.90;;;;;;4989105;28;20022;-81
2024/02/14 08:08:40;;;;;;;22.80;13.27;;;10.80;99.90;;;;;;4988458;28;20045;-81
2024/02/14 08:11:06;;;;;;;22.73;13.02;;;10.80;99.90;;;;;;4988945;28;20480;-82
2024/02/14 08:13:32;;;;;;;20.33;12.50;;;10.80;99.90;;;;;;4987950;28;20488;-81
2024/02/14 08:15:58;;;;;;;20.92;12.65;;;10.80;99.90;;;;;;4988480;28;20070;-81
2024/02/14 08:18:24;;;;;;;18.27;12.13;;;10.80;99.90;;;;;;4988120;28;20014;-80
2024/02/14 08:20:50;;;;;;;21.13;12.75;;;10.80;99.90;;;;;;4967260;28;20079;-81
2024/02/14 08:23:16;;;;;;;18.27;12.13;;;10.90;99.90;;;;;;4987449;28;20454;-80
2024/02/14 08:25:42;;;;;;;19.20;13.02;;;10.80;99.90;;;;;;4991016;28;20345;-82
2024/02/14 08:28:08;;;;;;;18.20;10.95;;;10.90;99.90;;;;;;4980038;28;20018;-81
2024/02/14 08:30:34;;;;;;;18.95;10.90;;;10.80;99.90;;;;;;4988914;28;20088;-81
2024/02/14 08:32:59;;;;;;;20.52;11.60;;;10.80;99.90;;;;;;4990140;28;20689;-81
2024/02/14 08:35:25;;;;;;;19.27;11.18;;;10.90;99.90;;;;;;4970815;28;20026;-81
2024/02/14 08:37:51;;;;;;;18.98;11.52;;;10.90;99.90;;;;;;4978277;28;20031;-79
2024/02/14 08:40:16;;;;;;;18.42;11.93;;;10.90;99.90;;;;;;4988794;28;20034;-80
2024/02/14 08:42:42;;;;;;;21.98;12.95;;;10.90;99.90;;;;;;4969594;28;20089;-80
2024/02/14 08:45:10;;;;;;;18.00;12.35;;;10.90;99.90;;;;;;4987435;28;20030;-81
2024/02/14 08:47:36;;;;;;;19.27;12.07;;;10.90;99.90;;;;;;4987392;28;20030;-80
2024/02/14 08:50:03;;;;;;;16.55;11.48;;;10.90;99.90;;;;;;4984135;28;20022;-80
2024/02/14 08:52:29;;;;;;;20.42;12.13;;;10.90;99.90;;;;;;4987071;28;20061;-80
2024/02/14 08:54:54;;;;;;;17.13;11.43;;;10.90;99.90;;;;;;4987424;28;20058;-79
2024/02/14 08:57:20;;;;;;;19.65;12.00;;;10.90;99.90;;;;;;4987212;28;20495;-80
2024/02/14 08:59:47;;;;;;;15.70;10.65;;;10.90;99.90;;;;;;4987649;28;20030;-79
2024/02/14 09:02:13;;;;;;;17.60;12.27;;;10.90;99.90;;;;;;4987174;28;20022;-77
2024/02/14 09:04:41;;;;;;;20.00;12.57;;;10.90;99.90;;;;;;4987639;28;20105;-77
2024/02/14 09:07:07;;;;;;;22.52;12.50;;;10.90;99.90;;;;;;4969087;28;20026;-79
2024/02/14 09:09:33;;;;;;;24.80;12.73;;;11.00;99.90;;;;;;4987423;28;20555;-79
2024/02/14 09:12:02;;;;;;;16.63;11.65;;;10.90;99.90;;;;;;4986613;28;20433;-79
2024/02/14 09:14:28;;;;;;;17.10;11.52;;;11.00;99.90;;;;;;4987386;28;20040;-79
2024/02/14 09:16:54;;;;;;;19.67;11.15;;;11.00;99.90;;;;;;4971500;28;20507;-80
2024/02/14 09:19:19;;;;;;;19.00;11.88;;;11.00;99.90;;;;;;4987823;28;20038;-80
2024/02/14 09:21:45;;;;;;;21.45;12.43;;;11.00;99.90;;;;;;4986596;28;20055;-80
2024/02/14 09:24:12;;;;;;;21.02;12.00;;;11.00;99.90;;;;;;4987552;28;20066;-80
2024/02/14 09:26:38;;;;;;;20.83;11.20;;;11.10;99.90;;;;;;4987772;28;20021;-80
2024/02/14 09:29:04;;;;;;;16.40;12.05;;;11.10;99.90;;;;;;4987115;28;20022;-80
2024/02/14 09:31:30;;;;;;;17.13;11.65;;;11.10;99.90;;;;;;4968752;28;20446;-79
2024/02/14 09:33:57;;;;;;;16.67;11.20;;;11.10;99.90;;;;;;4978844;28;20034;-80
2024/02/14 09:36:24;;;;;;;21.08;11.70;;;11.10;99.90;;;;;;4965294;28;20543;-81
2024/02/14 09:38:51;;;;;;;20.90;10.18;;;11.10;99.90;;;;;;4985612;28;20030;-79
2024/02/14 09:41:54;;;;;;;18.05;10.57;;;11.10;99.90;;;;;;4986837;28;20022;-81
2024/02/14 09:44:21;;;;;;;21.52;11.40;;;11.10;99.90;;;;;;4956517;28;20053;-81
2024/02/14 09:46:48;;;;;;;15.35;9.73;;;11.10;99.90;;;;;;4969050;28;20105;-81
2024/02/14 09:49:16;;;;;;;18.08;10.82;;;11.10;99.90;;;;;;4987271;28;20038;-80
2024/02/14 09:51:44;;;;;;;19.60;12.45;;;11.10;99.90;;;;;;4981671;28;20022;-79
2024/02/14 09:54:11;;;;;;;18.95;11.68;;;11.10;99.90;;;;;;4986323;28;20026;-79
2024/02/14 09:56:36;;;;;;;21.15;11.63;;;11.10;99.90;;;;;;4978805;28;20030;-80
2024/02/14 09:59:02;;;;;;;16.92;11.75;;;11.10;99.90;;;;;;4965977;28;20037;-83
2024/02/14 10:01:29;;;;;;;19.85;12.27;;;11.10;99.90;;;;;;4986743;28;20065;-81
2024/02/14 10:03:54;;;;;;;24.20;11.68;;;11.20;99.90;;;;;;4983425;28;20030;-81
2024/02/14 10:06:21;;;;;;;17.63;11.68;;;11.20;99.90;;;;;;4975324;28;20031;-82
2024/02/14 10:08:48;;;;;;;20.70;12.40;;;11.20;99.90;;;;;;4963417;28;20097;-83
2024/02/14 10:11:15;;;;;;;16.95;11.60;;;11.20;99.90;;;;;;4983388;28;20100;-85
2024/02/14 10:13:42;;;;;;;19.92;11.52;;;11.30;99.90;;;;;;4964846;28;20101;-82
2024/02/14 10:16:08;;;;;;;20.80;11.25;;;11.30;99.90;;;;;;4985144;28;20034;-82
2024/02/14 10:18:34;;;;;;;19.33;11.20;;;11.30;99.90;;;;;;4984884;28;20030;-82
2024/02/14 10:21:00;;;;;;;19.73;10.85;;;11.40;99.90;;;;;;4985830;28;20058;-83
2024/02/14 10:23:27;;;;;;;19.50;12.13;;;11.40;99.90;;;;;;4967619;28;20033;-82
2024/02/14 10:25:55;;;;;;;21.48;11.73;;;11.50;99.90;;;;;;4983078;28;20053;-82
2024/02/14 10:28:21;;;;;;;17.42;11.10;;;11.40;99.90;;;;;;4980991;28;20069;-81
2024/02/14 10:30:49;;;;;;;19.90;11.38;;;11.40;99.90;;;;;;4968240;28;20023;-80
2024/02/14 10:33:21;;;;;;;18.27;11.30;;;11.40;99.90;;;;;;4974994;28;20485;-80
2024/02/14 10:35:49;;;;;;;15.15;10.85;;;11.50;99.90;;;;;;4977493;28;20084;-81
2024/02/14 10:38:18;;;;;;;20.27;11.20;;;11.50;99.90;;;;;;4980473;28;20030;-80
2024/02/14 10:40:47;;;;;;;19.92;10.98;;;11.50;99.90;;;;;;4986351;28;20026;-79
2024/02/14 10:43:13;;;;;;;19.90;10.75;;;11.50;99.90;;;;;;4967518;28;20105;-79
2024/02/14 10:45:42;;;;;;;21.27;12.32;;;11.60;99.90;;;;;;4968701;28;20196;-79
2024/02/14 10:48:12;;;;;;;18.00;10.63;;;11.60;99.90;;;;;;4985626;28;20022;-77
2024/02/14 10:50:42;;;;;;;18.27;10.82;;;11.60;99.90;;;;;;4983586;28;20019;-79
2024/02/14 10:53:14;;;;;;;19.20;10.90;;;11.60;99.90;;;;;;4981924;28;20461;-78
2024/02/14 10:55:44;;;;;;;18.83;10.27;;;11.70;99.90;;;;;;4985595;28;20038;-80
2024/02/14 10:58:11;;;;;;;16.42;9.98;;;11.70;99.90;;;;;;4968192;28;20034;-80
2024/02/14 11:00:37;;;;;;;18.20;10.52;;;11.70;99.90;;;;;;4986155;28;20018;-80
2024/02/14 11:03:04;;;;;;;19.15;11.55;;;11.80;99.90;;;;;;4985080;28;20038;-80
2024/02/14 11:05:29;;;;;;;15.43;10.13;;;11.70;99.90;;;;;;4985922;28;20026;-80
2024/02/14 11:07:56;;;;;;;15.50;9.55;;;11.80;99.90;;;;;;4967566;28;20023;-84
2024/02/14 11:10:22;;;;;;;16.92;10.30;;;11.80;99.90;;;;;;4989659;28;20066;-83
2024/02/14 11:12:50;;;;;;;18.27;9.88;;;11.80;99.90;;;;;;4970822;28;20105;-80
2024/02/14 11:15:21;;;;;;;18.40;10.13;;;11.90;99.90;;;;;;4990185;28;20026;-83
2024/02/14 11:17:51;;;;;;;17.20;9.20;;;11.90;99.90;;;;;;4989155;28;20034;-83
2024/02/14 11:20:30;;;;;;;12.63;8.38;;;11.90;99.90;;;;;;4972199;28;20399;-80
2024/02/14 11:23:04;;;;;;;14.85;9.57;;;11.90;99.90;;;;;;4988633;28;20035;-80
2024/02/14 11:25:31;;;;;;;14.88;9.60;;;11.90;99.90;;;;;;4989989;28;20040;-80
2024/02/14 11:28:12;;;;;;;16.67;10.20;;;12.00;99.90;;;;;;4989001;28;20046;-81
2024/02/14 11:30:40;;;;;;;14.70;9.15;;;11.90;99.90;;;;;;4977600;28;20473;-80
2024/02/14 11:33:23;;;;;;;17.42;9.18;;;12.00;99.90;;;;;;4985957;28;20634;-81
2024/02/14 11:35:55;;;;;;;19.17;9.07;;;12.00;99.90;;;;;;4989813;28;20034;-81
2024/02/14 11:38:25;;;;;;;15.43;9.32;;;12.00;99.90;;;;;;4988793;28;20027;-82
2024/02/14 11:40:54;;;;;;;16.30;9.35;;;12.00;99.90;;;;;;4971663;28;20518;-81
2024/02/14 11:43:20;;;;;;;12.55;9.18;;;12.00;99.90;;;;;;4988243;28;20042;-80
2024/02/14 11:45:49;;;;;;;16.00;9.70;;;12.00;99.90;;;;;;4989405;28;20023;-81
2024/02/14 11:48:25;;;;;;;15.35;9.55;;;12.00;99.90;;;;;;4970998;28;20022;-80
2024/02/14 11:50:53;;;;;;;17.85;9.88;;;12.00;99.90;;;;;;4987331;28;20027;-83
2024/02/14 11:53:19;;;;;;;15.18;9.48;;;12.00;99.90;;;;;;4988079;28;20030;-81
2024/02/14 11:55:46;;;;;;;16.90;9.82;;;12.00;99.90;;;;;;4988681;28;20127;-83
2024/02/14 11:58:16;;;;;;;12.93;8.23;;;12.00;99.90;;;;;;4988293;28;20022;-81
2024/02/14 12:00:45;;;;;;;14.75;9.52;;;12.00;99.90;;;;;;4985988;28;20104;-81
2024/02/14 12:03:19;;;;;;;12.18;7.95;;;12.00;99.90;;;;;;4987815;28;20109;-82
2024/02/14 12:05:47;;;;;;;12.05;8.50;;;12.10;99.90;;;;;;4987272;28;20037;-81
2024/02/14 12:08:14;;;;;;;15.43;8.48;;;12.10;99.90;;;;;;4989350;28;20030;-81
2024/02/14 12:10:42;;;;;;;11.65;7.03;;;12.10;99.90;;;;;;4980378;28;20035;-80
2024/02/14 12:13:12;;;;;;;11.02;7.80;;;12.10;99.90;;;;;;4983742;28;20018;-80
2024/02/14 12:15:42;;;;;;;15.63;7.85;;;12.00;99.90;;;;;;4988575;28;20104;-81
2024/02/14 12:18:10;;;;;;;10.23;6.63;;;12.00;99.90;;;;;;4987549;28;20034;-81
2024/02/14 12:20:39;;;;;;;10.43;6.75;;;12.10;99.90;;;;;;4987071;28;20042;-79
2024/02/14 12:23:05;;;;;;;12.23;7.38;;;12.10;99.90;;;;;;4987370;28;20519;-80
2024/02/14 12:25:32;;;;;;;11.32;7.45;;;12.10;99.90;;;;;;4949142;28;20475;-80
2024/02/14 12:27:58;;;;;;;10.93;6.85;;;12.10;99.90;;;;;;4967312;28;20027;-80
2024/02/14 12:30:49;;;;;;;10.30;6.13;;;12.10;99.90;;;;;;4984744;28;20382;-80
2024/02/14 12:33:16;;;;;;;9.23;6.18;;;12.20;99.90;;;;;;4970057;28;20077;-80
2024/02/14 12:35:46;;;;;;;8.10;5.72;;;12.20;99.90;;;;;;4981990;28;20023;-81